Time;durP1;ratioP1;P1;durP2;ratioP2;P2;SDS_P1;SDS_P2;PMS_P1;PMS_P2;Temp;Humidity;BMP_temperature;BMP_pressure;BME280_temperature;BME280_humidity;BME280_pressure;Samples;Min_cycle;Max_cycle;Signal;HPM_P1;HPM_P2
2022/06/03 00:02:49;;;;;;;5.78;4.47;;;;;;;12.89;63.85;101742.53;6492353;23;20381;-82
2022/06/03 00:05:39;;;;;;;5.03;4.20;;;;;;;12.72;65.10;101751.38;6502448;22;20079;-77
2022/06/03 00:08:22;;;;;;;4.93;4.10;;;;;;;12.66;65.87;101745.31;6502081;22;20061;-82
2022/06/03 00:11:13;;;;;;;5.75;4.35;;;;;;;12.69;65.35;101740.06;6500332;22;20097;-78
2022/06/03 00:14:12;;;;;;;5.82;4.40;;;;;;;12.61;65.52;101741.88;6499510;22;20449;-78
2022/06/03 00:17:21;;;;;;;7.03;4.85;;;;;;;12.59;66.28;101750.59;6500091;22;20000;-78
2022/06/03 00:19:55;;;;;;;7.82;4.55;;;;;;;12.31;66.72;101751.59;6499426;23;20026;-83
2022/06/03 00:22:46;;;;;;;6.90;5.40;;;;;;;12.22;66.72;101748.16;6498953;22;20027;-81
2022/06/03 00:25:41;;;;;;;6.60;4.78;;;;;;;12.31;66.84;101741.13;6523706;22;20012;-80
2022/06/03 00:28:40;;;;;;;5.95;4.82;;;;;;;12.16;67.38;101740.31;6500330;22;20008;-79
2022/06/03 00:31:37;;;;;;;6.05;4.70;;;;;;;12.08;68.23;101743.88;6498248;23;20559;-79
2022/06/03 00:34:30;;;;;;;6.38;4.68;;;;;;;12.15;67.82;101748.19;6499232;23;20034;-79
2022/06/03 00:37:09;;;;;;;7.18;4.82;;;;;;;12.15;68.01;101748.19;6499303;22;20075;-83
2022/06/03 00:39:50;;;;;;;6.07;5.03;;;;;;;11.98;68.31;101737.81;6500105;22;20139;-82
2022/06/03 00:42:39;;;;;;;8.30;4.97;;;;;;;11.99;68.77;101740.41;6499298;22;20008;-82
2022/06/03 00:45:33;;;;;;;5.53;4.32;;;;;;;11.91;68.58;101736.88;6500012;22;20037;-84
2022/06/03 00:48:08;;;;;;;5.72;4.65;;;;;;;12.03;69.39;101739.50;6500142;22;20091;-79
2022/06/03 00:50:58;;;;;;;8.23;4.90;;;;;;;12.00;68.65;101736.03;6501034;22;20016;-81
2022/06/03 00:53:38;;;;;;;6.60;5.15;;;;;;;12.02;69.27;101742.97;6498572;23;20073;-81
2022/06/03 00:56:37;;;;;;;8.63;4.88;;;;;;;11.95;69.21;101737.81;6499516;22;20012;-76
2022/06/03 00:59:08;;;;;;;5.13;4.43;;;;;;;11.93;69.16;101731.69;6499220;22;20012;-78
2022/06/03 01:02:14;;;;;;;11.57;6.00;;;;;;;11.86;68.86;101734.31;6498692;22;20008;-81
2022/06/03 01:05:05;;;;;;;7.43;5.22;;;;;;;11.67;70.49;101730.88;6498895;23;20008;-78
2022/06/03 01:07:51;;;;;;;8.15;5.63;;;;;;;11.56;70.92;101731.75;6498758;22;20007;-77
2022/06/03 01:10:47;;;;;;;6.20;5.30;;;;;;;11.58;70.83;101728.28;6498541;22;20035;-80
2022/06/03 01:13:29;;;;;;;6.13;4.75;;;;;;;11.62;70.63;101724.81;6498907;23;20660;-80
2022/06/03 01:16:32;;;;;;;7.63;5.40;;;;;;;11.57;71.57;101726.53;6498234;23;20315;-82
2022/06/03 01:19:22;;;;;;;;;;;;;;;11.82;68.27;101726.50;6464552;23;20009;-77
2022/06/03 01:22:41;;;;;;;5.72;5.13;;;;;;;11.73;70.16;101718.66;6463741;23;19919;-80
2022/06/03 01:25:44;;;;;;;7.13;4.90;;;;;;;11.72;70.85;101716.91;6443681;23;20080;-82
2022/06/03 01:28:34;;;;;;;;;;;;;;;11.84;68.09;101711.66;6438534;23;20009;-79
2022/06/03 01:31:39;;;;;;;8.38;4.97;;;;;;;11.73;70.49;101700.38;6463545;23;20015;-82
2022/06/03 01:34:29;;;;;;;7.40;5.00;;;;;;;11.63;71.25;101700.41;6463668;23;20087;-77
2022/06/03 01:37:33;;;;;;;7.57;5.05;;;;;;;11.75;70.47;101709.09;6463349;23;20016;-79
2022/06/03 01:40:23;;;;;;;5.97;5.32;;;;;;;11.73;71.80;101703.84;6463797;23;20054;-79
2022/06/03 01:43:11;;;;;;;6.68;5.05;;;;;;;11.62;71.36;101701.31;6463843;23;20783;-79
2022/06/03 01:46:02;;;;;;;7.63;5.10;;;;;;;11.85;71.28;101693.38;6463417;23;20059;-78
2022/06/03 01:48:46;;;;;;;7.47;5.25;;;;;;;11.78;72.19;101696.88;6463030;23;20076;-81
2022/06/03 01:51:50;;;;;;;8.57;5.45;;;;;;;11.71;70.77;101689.94;6463469;23;20008;-80
2022/06/03 01:54:37;;;;;;;6.40;5.00;;;;;;;11.62;70.90;101695.19;6464052;23;20071;-81
2022/06/03 01:57:17;;;;;;;6.35;4.90;;;;;;;11.77;71.98;101694.25;6497615;22;20014;-81
2022/06/03 02:00:20;;;;;;;7.95;5.60;;;;;;;11.54;71.83;101687.38;6497917;22;20012;-81
2022/06/03 02:03:30;;;;;;;7.45;5.38;;;;;;;11.53;71.90;101689.97;6497688;22;20008;-75
2022/06/03 02:06:48;;;;;;;5.43;4.90;;;;;;;11.47;72.02;101689.13;6496619;23;20008;-81
2022/06/03 02:09:25;;;;;;;5.45;4.85;;;;;;;11.41;73.08;101683.03;6432181;23;20099;-81
2022/06/03 02:12:09;;;;;;;8.15;5.00;;;;;;;11.42;73.27;101676.97;6431963;23;20009;-81
2022/06/03 02:15:15;;;;;;;7.82;5.57;;;;;;;11.24;73.06;101672.66;6431694;23;20489;-80
2022/06/03 02:18:13;;;;;;;7.95;6.30;;;;;;;11.17;73.67;101682.19;6279422;23;20071;-76
2022/06/03 02:21:17;;;;;;;5.30;4.78;;;;;;;11.18;73.70;101676.13;6279502;23;20011;-78
2022/06/03 02:23:51;;;;;;;6.70;4.90;;;;;;;11.01;73.77;101683.09;6280038;23;20058;-77
2022/06/03 02:26:34;;;;;;;7.25;5.40;;;;;;;11.02;74.81;101674.41;6279595;23;20011;-76
2022/06/03 02:32:48;;;;;;;;;;;;;;;11.08;71.69;101680.47;6279312;23;20027;-80
2022/06/03 02:35:58;;;;;;;6.78;5.45;;;;;;;11.09;74.06;101674.41;6279864;23;19913;-76
2022/06/03 02:38:51;;;;;;;6.72;5.78;;;;;;;10.88;74.73;101674.38;6279613;23;20536;-81
2022/06/03 02:41:36;;;;;;;8.55;5.93;;;;;;;10.87;75.99;101678.75;6280226;23;20035;-81
2022/06/03 02:45:03;;;;;;;7.38;5.90;;;;;;;10.81;75.09;101672.66;6256031;23;20019;-77
2022/06/03 02:48:05;;;;;;;6.60;5.60;;;;;;;10.68;76.31;101669.19;6220394;24;20669;-78
2022/06/03 02:50:46;;;;;;;8.48;5.65;;;;;;;10.62;77.03;101661.34;6220587;24;20012;-78
2022/06/03 02:53:48;;;;;;;8.60;5.95;;;;;;;10.54;76.37;101664.78;6241585;23;20114;-78
2022/06/03 02:56:48;;;;;;;9.95;6.32;;;;;;;10.65;76.58;101663.97;6369893;23;20006;-81
2022/06/03 03:00:16;;;;;;;6.57;5.85;;;;;;;10.62;75.91;101672.63;6369552;23;20016;-78
2022/06/03 03:02:57;;;;;;;6.93;6.22;;;;;;;10.62;77.88;101661.34;6309150;23;20078;-79
2022/06/03 03:05:54;;;;;;;8.23;6.20;;;;;;;10.47;77.04;101668.28;6309255;23;20566;-78
2022/06/03 03:08:50;;;;;;;7.22;5.97;;;;;;;10.51;76.55;101671.75;6309596;23;20941;-80
2022/06/03 03:11:40;;;;;;;8.27;6.32;;;;;;;10.62;77.88;101679.59;6285144;23;20115;-78
2022/06/03 03:14:51;;;;;;;8.65;6.07;;;;;;;10.43;77.77;101679.53;6308762;23;20334;-82
2022/06/03 03:17:44;;;;;;;6.72;6.03;;;;;;;10.38;77.95;101661.31;6311571;23;20066;-78
2022/06/03 03:20:17;;;;;;;;;;;;;;;10.47;75.51;101652.63;6326442;23;20434;-81
2022/06/03 03:23:23;;;;;;;8.02;6.70;;;;;;;10.36;78.01;101657.81;6436064;23;19912;-77
2022/06/03 03:26:02;;;;;;;7.38;6.07;;;;;;;10.43;78.81;101661.28;6433664;23;20021;-76
2022/06/03 03:29:01;;;;;;;10.10;7.03;;;;;;;10.33;78.54;101650.00;6410425;23;20009;-81
2022/06/03 03:32:09;;;;;;;8.93;6.57;;;;;;;10.38;78.46;101650.00;6433121;23;20084;-76
2022/06/03 03:35:18;;;;;;;9.65;6.82;;;;;;;10.21;78.76;101645.59;6495849;23;20326;-81
2022/06/03 03:38:07;;;;;;;7.53;6.38;;;;;;;10.33;79.17;101647.38;6499820;23;20152;-78
2022/06/03 03:41:05;;;;;;;8.30;6.82;;;;;;;10.34;79.43;101648.28;6500224;22;20798;-79
2022/06/03 03:44:06;;;;;;;8.07;6.47;;;;;;;10.22;78.88;101636.94;6464831;23;20075;-77
2022/06/03 03:46:52;;;;;;;9.15;6.32;;;;;;;10.31;79.90;101648.22;6464535;23;20008;-83
2022/06/03 03:49:32;;;;;;;7.40;6.70;;;;;;;10.21;79.26;101650.81;6439717;23;20008;-81
2022/06/03 03:52:34;;;;;;;7.68;6.88;;;;;;;10.29;80.17;101649.94;6465781;23;20028;-78
2022/06/03 03:55:27;;;;;;;8.30;7.13;;;;;;;10.25;79.91;101646.47;6464390;23;20078;-77
2022/06/03 03:58:35;;;;;;;8.50;7.60;;;;;;;10.12;79.35;101639.50;6464158;23;20387;-83
2022/06/03 04:01:25;;;;;;;7.72;6.53;;;;;;;10.06;80.42;101635.13;6464700;23;20032;-81
2022/06/03 04:04:25;;;;;;;8.90;7.80;;;;;;;10.14;80.51;101641.25;6464771;23;20032;-80
2022/06/03 04:07:18;;;;;;;7.90;6.97;;;;;;;10.12;80.80;101636.88;6463991;23;20004;-77
2022/06/03 04:09:49;;;;;;;7.60;6.90;;;;;;;10.11;80.87;101628.22;6465355;23;20020;-81
2022/06/03 04:12:48;;;;;;;10.77;7.10;;;;;;;10.22;80.76;101636.94;6465258;23;20462;-77
2022/06/03 04:15:20;;;;;;;8.25;7.25;;;;;;;10.19;81.25;101633.41;6464329;23;20012;-82
2022/06/03 04:17:51;;;;;;;10.90;7.57;;;;;;;10.22;80.55;101631.72;6465434;23;20031;-78
2022/06/03 04:21:03;;;;;;;9.23;7.43;;;;;;;10.18;80.52;101636.91;6481377;23;20042;-82
2022/06/03 04:23:56;;;;;;;7.60;6.90;;;;;;;10.20;81.22;101632.56;6500800;23;20008;-78
2022/06/03 04:26:43;;;;;;;8.15;7.28;;;;;;;10.13;80.73;101633.44;6501967;22;20004;-83
2022/06/03 04:29:52;;;;;;;8.77;7.85;;;;;;;10.16;80.88;101625.63;6500822;22;20016;-82
2022/06/03 04:32:42;;;;;;;10.10;7.45;;;;;;;10.15;80.90;101623.88;6498327;23;20505;-85
2022/06/03 04:35:45;;;;;;;7.68;6.88;;;;;;;10.20;80.79;101623.00;6500865;22;20000;-79
2022/06/03 04:38:38;;;;;;;9.07;6.97;;;;;;;10.30;81.23;101621.28;6500947;23;20012;-80
2022/06/03 04:41:47;;;;;;;8.25;7.40;;;;;;;10.44;81.19;101626.56;6500241;22;20031;-85
2022/06/03 04:44:37;;;;;;;8.30;7.50;;;;;;;10.48;82.42;101641.34;6500133;23;20042;-83
2022/06/03 04:47:45;;;;;;;9.63;7.25;;;;;;;10.46;80.98;101639.59;6501009;23;20007;-78
2022/06/03 04:50:19;;;;;;;9.57;7.50;;;;;;;10.61;80.66;101639.63;6500172;23;20000;-81
2022/06/03 04:53:21;;;;;;;8.85;7.60;;;;;;;10.65;81.10;101651.78;6500263;22;20008;-79
2022/06/03 04:56:19;;;;;;;8.18;7.10;;;;;;;10.66;80.78;101643.09;6500017;23;20112;-81
2022/06/03 04:59:08;;;;;;;8.60;7.80;;;;;;;10.76;80.68;101642.22;6500710;23;20487;-82
2022/06/03 05:02:04;;;;;;;10.00;7.38;;;;;;;10.84;79.91;101642.22;6502488;22;20016;-79
2022/06/03 05:05:10;;;;;;;7.97;7.20;;;;;;;11.00;80.39;101634.41;6500039;22;20008;-79
2022/06/03 05:08:05;;;;;;;8.18;7.32;;;;;;;11.06;80.36;101632.66;6499989;23;20054;-80
2022/06/03 05:11:14;;;;;;;9.00;7.68;;;;;;;11.14;79.79;101640.47;6499995;22;20087;-79
2022/06/03 05:14:42;;;;;;;10.25;7.30;;;;;;;11.23;79.62;101635.22;6499538;22;20008;-82
2022/06/03 05:17:35;;;;;;;8.60;7.68;;;;;;;11.31;79.26;101638.69;6464385;23;20031;-79
2022/06/03 05:20:25;;;;;;;9.60;7.82;;;;;;;11.39;78.48;101640.41;6465206;23;20017;-83
2022/06/03 05:23:17;;;;;;;11.55;8.30;;;;;;;11.50;78.11;101636.03;6465293;23;20417;-83
2022/06/03 05:25:58;;;;;;;9.40;8.05;;;;;;;11.66;78.53;101629.88;6372518;23;20114;-84
2022/06/03 05:28:57;;;;;;;8.82;7.88;;;;;;;11.73;77.47;101624.63;6370920;23;20021;-77
2022/06/03 05:31:56;;;;;;;12.32;7.30;;;;;;;11.81;76.82;101626.34;6371627;23;20010;-82
2022/06/03 05:34:49;;;;;;;11.00;8.10;;;;;;;11.93;78.17;101628.06;6372300;23;20009;-83
2022/06/03 05:37:39;;;;;;;9.80;7.80;;;;;;;12.04;77.05;101630.59;6372000;23;20048;-82
2022/06/03 05:40:19;;;;;;;7.57;6.80;;;;;;;12.07;76.20;101629.72;6371991;23;20063;-82
2022/06/03 05:43:20;;;;;;;8.02;6.93;;;;;;;12.19;76.62;101627.06;6371598;23;20021;-82
2022/06/03 05:46:19;;;;;;;10.77;7.70;;;;;;;12.33;74.92;101625.22;6222515;24;20079;-84
2022/06/03 05:49:08;;;;;;;9.85;7.00;;;;;;;12.45;74.32;101629.50;6278234;23;20090;-80
2022/06/03 05:52:29;;;;;;;8.85;7.20;;;;;;;12.59;74.47;101618.94;6281246;23;20015;-77
2022/06/03 05:55:03;;;;;;;7.40;6.70;;;;;;;12.70;74.08;101618.84;6193007;24;20024;-85
2022/06/03 05:57:45;;;;;;;14.40;7.60;;;;;;;12.79;73.79;101628.38;6193005;24;20009;-80
2022/06/03 06:00:26;;;;;;;10.10;7.10;;;;;;;12.88;72.81;101626.53;6193752;24;20491;-86
2022/06/03 06:03:29;;;;;;;7.65;6.55;;;;;;;12.99;72.72;101630.81;6222944;23;20016;-81
2022/06/03 06:06:31;;;;;;;8.65;7.00;;;;;;;13.09;73.43;101630.72;6251779;23;20035;-83
2022/06/03 06:09:17;;;;;;;7.07;6.35;;;;;;;13.18;74.09;101634.13;6250615;23;20438;-82
2022/06/03 06:12:06;;;;;;;10.85;7.20;;;;;;;13.31;71.93;101626.13;6252858;23;20067;-86
2022/06/03 06:15:08;;;;;;;7.90;6.47;;;;;;;13.37;71.64;101622.59;6251953;23;20383;-84
2022/06/03 06:18:19;;;;;;;8.30;6.15;;;;;;;13.54;71.09;101626.78;6251417;23;20027;-82
2022/06/03 06:21:14;;;;;;;7.18;5.93;;;;;;;13.65;70.67;101630.13;6252458;23;20008;-84
2022/06/03 06:24:11;;;;;;;7.90;6.93;;;;;;;13.75;70.15;101633.50;6373010;23;20458;-78
2022/06/03 06:27:17;;;;;;;10.20;6.55;;;;;;;13.85;69.07;101636.00;6374003;23;20116;-82
2022/06/03 06:30:07;;;;;;;6.80;5.55;;;;;;;13.99;68.55;101624.44;6396527;23;20433;-81
2022/06/03 06:32:58;;;;;;;7.60;5.78;;;;;;;14.14;68.84;101628.66;6499995;22;20004;-84
2022/06/03 06:36:00;;;;;;;11.63;7.15;;;;;;;14.23;68.13;101629.38;6499084;22;20094;-85
2022/06/03 06:39:06;;;;;;;6.88;5.07;;;;;;;14.38;67.78;101633.53;6499767;23;20073;-81
2022/06/03 06:41:45;;;;;;;7.05;5.47;;;;;;;14.46;67.17;101622.91;6499259;23;20004;-87
2022/06/03 06:44:46;;;;;;;6.60;5.68;;;;;;;14.64;66.49;101620.94;6502051;22;20036;-80
2022/06/03 06:47:30;;;;;;;6.90;5.00;;;;;;;14.75;67.33;101627.72;6510308;23;20004;-80
2022/06/03 06:50:26;;;;;;;6.32;5.20;;;;;;;14.93;66.11;101618.66;6499375;22;20032;-81
2022/06/03 06:53:17;;;;;;;7.50;5.43;;;;;;;15.04;64.12;101626.34;6501152;23;20475;-86
2022/06/03 06:55:55;;;;;;;8.88;5.57;;;;;;;15.13;63.39;101625.31;6499624;22;20004;-77
2022/06/03 06:58:55;;;;;;;8.15;5.60;;;;;;;15.30;63.36;101623.22;6501439;22;20031;-82
2022/06/03 07:01:35;;;;;;;8.75;5.25;;;;;;;15.41;63.29;101623.03;6501468;22;20421;-82
2022/06/03 07:04:14;;;;;;;7.30;4.97;;;;;;;15.49;64.15;101629.00;6500706;22;20008;-82
2022/06/03 07:07:27;;;;;;;8.15;5.35;;;;;;;15.70;61.87;101634.72;6499528;22;20442;-82
2022/06/03 07:10:06;;;;;;;5.93;5.07;;;;;;;15.83;62.29;101623.09;6489256;23;20004;-78
2022/06/03 07:12:44;;;;;;;10.70;4.95;;;;;;;15.83;60.71;101630.13;6498813;22;20012;-83
2022/06/03 07:15:25;;;;;;;8.55;5.35;;;;;;;16.04;60.97;101632.28;6500652;22;20426;-84
2022/06/03 07:21:25;;;;;;;8.75;5.78;;;;;;;16.26;61.54;101621.28;6500413;23;20016;-86
2022/06/03 07:24:05;;;;;;;10.57;5.78;;;;;;;16.40;61.28;101618.31;6501062;22;20000;-86
2022/06/03 07:26:38;;;;;;;6.47;5.88;;;;;;;16.45;62.99;101615.56;6501993;23;20036;-86
2022/06/03 07:29:23;;;;;;;7.90;5.70;;;;;;;16.53;60.22;101608.34;6500762;22;20008;-87
2022/06/03 07:32:08;;;;;;;9.45;5.72;;;;;;;16.71;61.21;101610.53;6502857;22;20038;-77
2022/06/03 07:34:49;;;;;;;6.53;5.63;;;;;;;16.81;61.55;101611.16;6504144;22;20499;-78
2022/06/03 07:37:28;;;;;;;7.38;5.60;;;;;;;16.96;59.33;101609.94;6504636;22;20058;-86
2022/06/03 07:40:05;;;;;;;10.40;6.47;;;;;;;17.04;61.56;101615.00;6503606;22;20012;-82
2022/06/03 07:42:49;;;;;;;8.15;6.13;;;;;;;17.22;59.44;101608.38;6501100;22;20104;-80
2022/06/03 07:45:29;;;;;;;;;;;;;;;17.26;59.06;101607.38;6502237;22;20005;-78
2022/06/03 07:48:04;;;;;;;6.95;5.63;;;;;;;17.21;58.77;101609.25;6505288;23;19919;-77
2022/06/03 07:50:45;;;;;;;8.95;5.80;;;;;;;17.51;58.36;101602.28;6507525;23;20360;-87
2022/06/03 07:53:25;;;;;;;7.43;5.45;;;;;;;17.61;57.53;101602.88;6504889;22;20016;-78
2022/06/03 07:55:57;;;;;;;9.93;6.20;;;;;;;17.61;57.11;101608.13;6507224;22;20023;-76
2022/06/03 07:58:31;;;;;;;6.65;5.13;;;;;;;17.77;57.23;101611.19;6511044;22;20004;-83
2022/06/03 08:01:02;;;;;;;9.10;5.93;;;;;;;17.74;57.71;101616.56;6509479;22;20004;-78
2022/06/03 08:03:37;;;;;;;11.57;6.53;;;;;;;17.83;58.28;101606.59;6510426;22;20004;-86
2022/06/03 08:06:08;;;;;;;7.15;6.30;;;;;;;18.12;57.50;101602.22;6505579;22;20446;-78
2022/06/03 08:11:34;;;;;;;11.57;7.85;;;;;;;18.23;56.71;101597.47;6501154;23;20052;-81
2022/06/03 08:14:06;;;;;;;9.70;7.50;;;;;;;18.40;55.46;101590.78;6501271;22;20012;-86
2022/06/03 08:16:37;;;;;;;10.63;7.23;;;;;;;18.36;54.24;101583.91;6501248;22;20008;-86
2022/06/03 08:19:11;;;;;;;9.43;7.13;;;;;;;18.58;55.02;101569.06;6502533;22;20682;-83
2022/06/03 08:21:54;;;;;;;7.45;6.60;;;;;;;18.76;54.13;101572.00;6504910;22;20004;-88
2022/06/03 08:24:32;;;;;;;8.85;7.95;;;;;;;18.84;55.34;101567.34;6504348;22;20014;-79
2022/06/03 08:27:20;;;;;;;9.55;7.80;;;;;;;18.95;54.34;101566.97;6508613;22;20008;-87
2022/06/03 08:29:59;;;;;;;10.02;7.63;;;;;;;18.89;54.41;101575.13;6503288;22;20007;-80
2022/06/03 08:32:39;;;;;;;9.27;8.15;;;;;;;18.95;54.78;101577.53;6505662;22;20059;-87
2022/06/03 08:35:14;;;;;;;8.95;7.93;;;;;;;19.00;55.57;101572.97;6508913;22;20008;-80
2022/06/03 08:38:06;;;;;;;12.68;8.18;;;;;;;19.25;53.89;101574.69;6503286;22;20289;-86
2022/06/03 08:40:59;;;;;;;9.27;8.13;;;;;;;19.35;52.38;101572.59;6503499;23;20000;-78
2022/06/03 08:43:56;;;;;;;9.48;8.48;;;;;;;19.54;54.88;101576.25;6506185;22;20042;-76
2022/06/03 08:46:34;;;;;;;9.85;7.93;;;;;;;19.58;52.30;101569.94;6503951;22;20004;-79
2022/06/03 08:49:11;;;;;;;12.35;7.70;;;;;;;19.77;51.21;101582.47;6504010;22;20011;-76
2022/06/03 08:51:49;;;;;;;7.93;7.15;;;;;;;19.98;51.10;101581.66;6506118;22;20036;-80
2022/06/03 08:54:35;;;;;;;9.52;7.53;;;;;;;20.12;50.64;101580.25;6507405;22;20023;-79
2022/06/03 08:57:28;;;;;;;8.48;7.60;;;;;;;20.43;52.19;101584.28;6511298;23;20027;-77
2022/06/03 09:00:21;;;;;;;7.80;6.88;;;;;;;20.70;50.07;101572.53;6517280;23;20062;-84
2022/06/03 09:03:12;;;;;;;11.27;7.40;;;;;;;20.89;51.00;101575.28;6514201;23;20001;-78
2022/06/03 09:05:49;;;;;;;11.30;7.38;;;;;;;20.76;48.51;101582.88;6511632;23;20084;-78
2022/06/03 09:08:43;;;;;;;117.43;20.52;;;;;;;20.98;49.89;101570.50;6513369;23;20004;-76
2022/06/03 09:11:24;;;;;;;8.13;6.40;;;;;;;21.06;49.96;101576.34;6508704;23;20015;-87
2022/06/03 09:14:03;;;;;;;8.05;6.32;;;;;;;21.21;47.81;101566.84;6487376;23;20039;-78
2022/06/03 09:16:36;;;;;;;8.10;5.95;;;;;;;21.17;45.95;101570.53;6515815;23;20080;-77
2022/06/03 09:19:17;;;;;;;6.85;6.15;;;;;;;21.20;47.57;101575.72;6514245;23;20008;-87
2022/06/03 09:21:51;;;;;;;9.98;6.68;;;;;;;21.33;46.81;101568.06;6514474;23;20000;-78
2022/06/03 09:24:32;;;;;;;7.85;6.15;;;;;;;21.23;45.58;101575.56;6514178;23;20054;-78
2022/06/03 09:27:04;;;;;;;8.60;4.93;;;;;;;21.30;45.20;101569.09;6514195;23;20015;-79
2022/06/03 09:29:38;;;;;;;7.65;4.72;;;;;;;21.49;45.44;101572.63;6511727;23;20373;-77
2022/06/03 09:32:09;;;;;;;7.78;5.78;;;;;;;21.57;44.44;101569.59;6504552;23;20024;-84
2022/06/03 09:34:44;;;;;;;6.67;5.67;;;;;;;21.71;46.34;101568.97;6503636;23;20084;-81
2022/06/03 09:37:29;;;;;;;7.50;5.57;;;;;;;21.81;44.11;101567.59;6504624;23;20015;-81
2022/06/03 09:40:03;;;;;;;12.23;4.90;;;;;;;22.00;44.30;101559.59;6505596;23;20008;-87
2022/06/03 09:42:37;;;;;;;7.88;4.43;;;;;;;22.02;42.92;101559.53;6503723;23;20000;-80
2022/06/03 09:45:09;;;;;;;7.47;4.80;;;;;;;21.99;42.88;101554.38;6502349;23;20012;-81
2022/06/03 09:47:43;;;;;;;9.23;4.40;;;;;;;22.25;44.58;101555.78;6506299;23;20004;-78
2022/06/03 09:50:18;;;;;;;6.47;4.20;;;;;;;22.24;42.49;101563.81;6512969;23;19992;-84
2022/06/03 09:52:57;;;;;;;7.57;4.35;;;;;;;22.25;42.42;101558.41;6504454;23;20011;-87
2022/06/03 09:55:47;;;;;;;5.13;3.72;;;;;;;22.56;40.89;101548.94;6504271;23;20417;-80
2022/06/03 09:58:23;;;;;;;5.22;3.50;;;;;;;22.57;39.97;101556.84;6502028;23;20004;-87
2022/06/03 10:00:56;;;;;;;7.53;3.88;;;;;;;23.00;39.12;101551.06;6501248;23;20468;-88
2022/06/03 10:03:27;;;;;;;;;;;;;;;23.86;39.39;101553.56;6475305;23;20388;-88
2022/06/03 10:05:59;;;;;;;5.00;3.90;;;;;;;25.37;34.61;101544.59;6501487;23;19911;-81
2022/06/03 10:14:13;;;;;;;5.82;2.50;;;;;;;29.15;27.39;101538.41;6502182;23;20350;-81
2022/06/03 10:16:45;;;;;;;2.88;2.50;;;;;;;30.28;26.55;101547.09;6500935;23;20012;-84
2022/06/03 10:19:16;;;;;;;5.63;2.67;;;;;;;30.33;26.70;101535.94;6500339;23;20058;-81
2022/06/03 10:21:53;;;;;;;3.35;2.42;;;;;;;31.25;26.56;101536.06;6500318;23;20027;-86
2022/06/03 10:24:32;;;;;;;5.65;2.70;;;;;;;31.53;25.75;101533.63;6500151;23;20060;-83
2022/06/03 10:27:05;;;;;;;3.78;2.30;;;;;;;31.75;25.81;101537.91;6500849;23;20087;-86
2022/06/03 10:29:49;;;;;;;2.95;2.20;;;;;;;32.25;24.95;101523.47;6501554;23;20012;-82
2022/06/03 10:32:22;;;;;;;5.13;2.50;;;;;;;32.78;24.83;101521.22;6471742;23;20016;-87
2022/06/03 10:35:13;;;;;;;3.53;1.95;;;;;;;32.76;24.11;101512.44;6500880;23;20015;-90
2022/06/03 10:37:50;;;;;;;6.75;2.33;;;;;;;32.30;22.52;101518.47;6500400;23;20426;-84
2022/06/03 10:40:26;;;;;;;4.80;2.50;;;;;;;32.37;21.08;101515.22;6500667;23;20476;-84
2022/06/03 10:43:00;;;;;;;3.95;2.10;;;;;;;31.90;21.93;101524.03;6500008;23;20857;-86
2022/06/03 10:45:34;;;;;;;3.20;2.13;;;;;;;30.84;23.46;101520.84;6500301;23;20008;-89
2022/06/03 10:48:21;;;;;;;2.70;1.90;;;;;;;31.91;22.52;101526.56;6507228;23;20842;-81
2022/06/03 10:50:52;;;;;;;2.22;1.67;;;;;;;31.89;20.19;101516.91;6499821;23;20004;-78
2022/06/03 11:02:16;;;;;;;5.90;1.88;;;;;;;32.98;19.55;101512.06;6404864;23;20017;-81
2022/06/03 11:04:47;;;;;;;3.08;2.10;;;;;;;33.73;19.78;101509.25;6404263;23;20451;-80
2022/06/03 11:07:25;;;;;;;3.10;1.63;;;;;;;34.56;19.68;101507.22;6403608;23;20014;-79
2022/06/03 11:09:59;;;;;;;2.35;1.75;;;;;;;35.48;18.64;101500.16;6409047;23;20020;-80
2022/06/03 11:12:31;;;;;;;2.78;1.80;;;;;;;35.33;16.93;101502.69;6378333;23;20013;-86
2022/06/03 11:15:26;;;;;;;2.17;1.60;;;;;;;35.46;18.65;101502.22;6402740;23;20083;-78
2022/06/03 11:18:00;;;;;;;2.67;1.38;;;;;;;34.49;18.92;101501.59;6401796;23;20017;-82
2022/06/03 11:20:39;;;;;;;1.45;1.33;;;;;;;33.12;18.96;101501.75;6402020;23;20071;-80
2022/06/03 11:23:13;;;;;;;3.03;1.67;;;;;;;32.89;19.18;101503.00;6402328;23;20398;-82
2022/06/03 11:25:51;;;;;;;5.38;1.90;;;;;;;32.11;19.76;101488.84;6402881;23;20009;-80
2022/06/03 11:28:33;;;;;;;6.15;2.03;;;;;;;32.94;20.69;101494.44;6402667;23;20010;-80
2022/06/03 11:31:14;;;;;;;2.75;1.73;;;;;;;33.59;20.40;101496.22;6415356;23;20014;-80
2022/06/03 11:33:56;;;;;;;2.35;1.70;;;;;;;33.06;21.71;101495.94;6499716;23;20015;-78
2022/06/03 11:36:35;;;;;;;3.75;1.95;;;;;;;32.46;19.23;101480.09;6501148;23;20027;-84
2022/06/03 11:39:19;;;;;;;2.55;2.10;;;;;;;33.36;20.37;101485.88;6500826;23;20008;-78
2022/06/03 11:41:57;;;;;;;3.00;1.50;;;;;;;33.57;20.59;101493.69;6501185;23;20011;-80
2022/06/03 11:44:51;;;;;;;3.35;1.88;;;;;;;33.63;20.18;101481.38;6499665;23;20444;-81
2022/06/03 11:47:36;;;;;;;3.03;1.70;;;;;;;33.58;19.23;101483.72;6499418;23;20004;-87
2022/06/03 11:50:09;;;;;;;5.57;1.95;;;;;;;33.73;20.26;101490.31;6499813;23;20012;-82
2022/06/03 11:52:40;;;;;;;3.47;2.00;;;;;;;34.04;20.62;101479.09;6499348;23;20043;-82
2022/06/03 11:55:12;;;;;;;2.65;1.88;;;;;;;34.24;17.73;101487.88;6500962;23;20004;-77
2022/06/03 11:57:55;;;;;;;2.15;1.80;;;;;;;33.96;19.52;101484.44;6501902;23;20012;-84
2022/06/03 12:00:33;;;;;;;2.20;1.85;;;;;;;33.89;18.45;101488.75;6475676;23;20004;-79
2022/06/03 12:03:11;;;;;;;2.75;1.67;;;;;;;34.80;19.15;101493.81;6502483;23;20004;-79
2022/06/03 12:05:51;;;;;;;3.13;2.55;;;;;;;35.17;17.59;101489.91;6501510;23;20004;-82
2022/06/03 12:08:44;;;;;;;4.03;2.20;;;;;;;36.56;18.47;101495.63;6503468;23;20004;-79
2022/06/03 12:14:38;;;;;;;3.20;2.10;;;;;;;37.09;16.12;101487.81;6502858;23;20012;-82
2022/06/03 12:17:10;;;;;;;4.43;2.60;;;;;;;37.17;15.28;101474.16;6502436;23;20004;-85
2022/06/03 12:19:44;;;;;;;4.43;2.00;;;;;;;38.02;18.18;101475.97;6501409;23;20808;-79
2022/06/03 12:22:31;;;;;;;2.78;2.15;;;;;;;38.92;14.79;101481.50;6503136;23;20235;-80
2022/06/03 12:25:31;;;;;;;3.47;2.13;;;;;;;38.44;16.27;101471.81;6501437;23;20004;-88
2022/06/03 12:28:05;;;;;;;2.55;1.85;;;;;;;37.68;14.39;101466.41;6501527;23;20319;-84
2022/06/03 12:30:45;;;;;;;4.70;2.70;;;;;;;37.31;15.93;101459.84;6474308;23;20027;-84
2022/06/03 12:33:41;;;;;;;2.35;2.13;;;;;;;36.60;18.12;101458.97;6501438;23;20011;-82
2022/06/03 12:36:37;;;;;;;3.63;2.22;;;;;;;37.81;16.09;101468.50;6500157;23;20342;-81
2022/06/03 12:39:21;;;;;;;4.68;2.08;;;;;;;37.34;15.38;101458.66;6501527;23;20008;-79
2022/06/03 12:42:00;;;;;;;3.88;1.88;;;;;;;36.12;15.05;101464.28;6501742;23;20043;-83
2022/06/03 12:44:43;;;;;;;2.58;1.90;;;;;;;37.50;18.04;101460.38;6501001;23;20004;-85
2022/06/03 12:47:26;;;;;;;2.13;1.92;;;;;;;37.46;15.50;101448.19;6500757;23;20066;-80
2022/06/03 12:50:03;;;;;;;2.15;1.95;;;;;;;36.29;16.41;101449.72;6503388;23;20015;-87
2022/06/03 12:52:38;;;;;;;2.13;1.88;;;;;;;36.44;16.58;101440.84;6500456;23;20008;-85
2022/06/03 12:55:26;;;;;;;3.67;2.00;;;;;;;37.71;16.80;101447.00;6502063;23;20016;-85
2022/06/03 12:58:00;;;;;;;3.63;1.90;;;;;;;36.86;20.58;101447.84;6502051;23;20012;-83
2022/06/03 13:00:35;;;;;;;3.85;2.00;;;;;;;37.22;15.48;101450.03;6501164;23;20002;-77
2022/06/03 13:03:15;;;;;;;3.20;2.30;;;;;;;34.78;16.56;101436.28;6499674;23;20031;-81
2022/06/03 13:05:49;;;;;;;3.90;2.38;;;;;;;34.15;16.51;101434.69;6499112;23;20012;-85
2022/06/03 13:08:27;;;;;;;3.25;2.10;;;;;;;34.53;19.28;101436.09;6501043;23;20003;-85
2022/06/03 13:11:02;;;;;;;2.83;2.10;;;;;;;34.43;18.25;101427.28;6500924;23;20015;-86
2022/06/03 13:13:37;;;;;;;3.08;2.40;;;;;;;35.20;19.56;101426.41;6500525;23;20095;-77
2022/06/03 13:16:29;;;;;;;2.65;2.15;;;;;;;36.63;16.25;101439.56;6500229;23;20134;-85
2022/06/03 13:19:17;;;;;;;4.45;2.25;;;;;;;37.04;15.95;101429.38;6500435;23;20012;-81
2022/06/03 13:21:57;;;;;;;2.95;2.17;;;;;;;37.39;16.21;101429.03;6500156;23;20062;-78
2022/06/03 13:24:32;;;;;;;6.10;2.33;;;;;;;36.99;15.20;101426.38;6502322;23;20357;-76
2022/06/03 13:27:22;;;;;;;1.90;1.70;;;;;;;36.66;17.39;101425.63;6501065;23;20027;-80